createdAt,value
2019-05-06T00:01:04.783Z,100.00
2019-05-06T00:03:34.342Z,100.00
2019-05-06T00:06:03.960Z,100.00
2019-05-06T00:08:34.538Z,100.00
2019-05-06T00:11:04.747Z,100.00
2019-05-06T00:13:34.380Z,100.00
2019-05-06T00:16:03.959Z,100.00
2019-05-06T00:18:34.202Z,100.00
2019-05-06T00:21:04.712Z,100.00
2019-05-06T00:23:37.845Z,100.00
2019-05-06T00:26:21.856Z,100.00
2019-05-06T00:28:53.954Z,100.00
2019-05-06T00:31:25.368Z,100.00
2019-05-06T00:33:54.154Z,100.00
2019-05-06T00:36:23.704Z,100.00
2019-05-06T00:38:54.061Z,100.00
2019-05-06T00:41:29.567Z,100.00
2019-05-06T00:43:57.890Z,100.00
2019-05-06T00:46:26.566Z,100.00
2019-05-06T00:48:54.984Z,100.00
2019-05-06T00:51:24.359Z,100.00
2019-05-06T00:54:00.327Z,100.00
2019-05-06T00:56:28.899Z,100.00
2019-05-06T00:58:57.264Z,100.00
2019-05-06T01:01:29.625Z,100.00
2019-05-06T01:03:56.053Z,100.00
2019-05-06T01:06:24.775Z,100.00
2019-05-06T01:08:54.360Z,100.00
2019-05-06T01:11:23.991Z,100.00
2019-05-06T01:14:00.374Z,100.00
2019-05-06T01:16:28.771Z,100.00
2019-05-06T01:18:57.446Z,100.00
2019-05-06T01:21:25.735Z,100.00
2019-05-06T01:23:54.597Z,100.00
2019-05-06T01:26:24.250Z,100.00
2019-05-06T01:28:54.619Z,100.00
2019-05-06T01:31:26.022Z,100.00
2019-05-06T01:33:53.788Z,100.00
2019-05-06T01:36:22.159Z,100.00
2019-05-06T01:39:04.457Z,100.00
2019-05-06T01:41:34.542Z,100.00
2019-05-06T01:44:04.239Z,100.00
2019-05-06T01:46:33.968Z,100.00
2019-05-06T01:49:04.269Z,100.00
2019-05-06T01:51:34.790Z,100.00
2019-05-06T01:54:03.766Z,100.00
2019-05-06T01:56:33.676Z,100.00
2019-05-06T01:59:04.369Z,100.00
2019-05-06T02:01:34.215Z,100.00
2019-05-06T02:04:04.432Z,100.00
2019-05-06T02:06:34.236Z,100.00
2019-05-06T02:09:04.609Z,100.00
2019-05-06T02:11:33.703Z,100.00
2019-05-06T02:14:04.584Z,100.00
2019-05-06T02:16:34.131Z,100.00
2019-05-06T02:19:04.043Z,100.00
2019-05-06T02:21:34.015Z,100.00
2019-05-06T02:24:06.473Z,100.00
2019-05-06T02:26:34.783Z,100.00
2019-05-06T02:29:04.756Z,100.00
2019-05-06T02:31:46.399Z,100.00
2019-05-06T02:34:36.380Z,100.00
2019-05-06T02:37:09.391Z,100.00
2019-05-06T02:39:37.728Z,100.00
2019-05-06T02:42:08.069Z,100.00
2019-05-06T02:44:36.787Z,100.00
2019-05-06T02:47:23.431Z,100.00
2019-05-06T02:49:58.891Z,100.00
2019-05-06T02:52:27.189Z,100.00
2019-05-06T02:54:55.512Z,100.00
2019-05-06T02:57:24.249Z,100.00
2019-05-06T02:59:55.286Z,100.00
2019-05-06T03:02:39.071Z,100.00
2019-05-06T03:04:53.138Z,100.00
2019-05-06T03:07:23.326Z,100.00
2019-05-06T03:09:53.281Z,100.00
2019-05-06T03:12:22.882Z,100.00
2019-05-06T03:14:53.303Z,100.00
2019-05-06T03:17:23.463Z,100.00
2019-05-06T03:19:53.662Z,100.00
2019-05-06T03:22:27.655Z,100.00
2019-05-06T03:24:55.483Z,100.00
2019-05-06T03:27:24.287Z,100.00
2019-05-06T03:29:53.664Z,100.00
2019-05-06T03:32:29.853Z,100.00
2019-05-06T03:35:16.309Z,100.00
2019-05-06T03:37:23.956Z,100.00
2019-05-06T03:39:53.076Z,100.00
2019-05-06T03:42:23.100Z,100.00
2019-05-06T03:44:53.682Z,100.00
2019-05-06T03:47:40.019Z,100.00
2019-05-06T03:50:08.778Z,100.00
2019-05-06T03:52:37.151Z,100.00
2019-05-06T03:55:05.939Z,100.00
2019-05-06T03:57:36.189Z,100.00
2019-05-06T04:00:06.288Z,100.00
2019-05-06T04:02:39.403Z,100.00
2019-05-06T04:05:06.620Z,100.00
2019-05-06T04:07:35.070Z,100.00
2019-05-06T04:10:04.898Z,100.00
2019-05-06T04:12:34.640Z,100.00
2019-05-06T04:15:04.321Z,100.00
2019-05-06T04:17:40.408Z,100.00
2019-05-06T04:20:16.838Z,100.00
2019-05-06T04:22:55.718Z,100.00
2019-05-06T04:25:43.567Z,100.00
2019-05-06T04:28:14.233Z,100.00
2019-05-06T04:30:43.183Z,100.00
2019-05-06T04:33:16.910Z,100.00
2019-05-06T04:35:43.002Z,100.00
2019-05-06T04:38:14.011Z,100.00
2019-05-06T04:40:43.972Z,100.00
2019-05-06T04:43:13.371Z,100.00
2019-05-06T04:45:43.330Z,100.00
2019-05-06T04:48:14.261Z,100.00
2019-05-06T04:50:44.285Z,100.00
2019-05-06T04:53:13.650Z,100.00
2019-05-06T04:55:43.751Z,100.00
2019-05-06T04:58:13.402Z,100.00
2019-05-06T05:00:44.421Z,100.00
2019-05-06T05:03:13.964Z,100.00
2019-05-06T05:05:44.755Z,100.00
2019-05-06T05:08:13.416Z,100.00
2019-05-06T05:11:03.728Z,100.00
2019-05-06T05:13:43.347Z,100.00
2019-05-06T05:16:16.508Z,100.00
2019-05-06T05:18:49.135Z,100.00
2019-05-06T05:21:17.431Z,100.00
2019-05-06T05:23:45.823Z,100.00
2019-05-06T05:26:14.503Z,100.00
2019-05-06T05:28:43.095Z,100.00
2019-05-06T05:31:12.291Z,100.00
2019-05-06T05:33:42.312Z,100.00
2019-05-06T05:36:12.359Z,100.00
2019-05-06T05:38:42.877Z,100.00
2019-05-06T05:41:12.595Z,100.00
2019-05-06T05:43:45.517Z,100.00
2019-05-06T05:46:14.140Z,100.00
2019-05-06T05:48:54.124Z,100.00
2019-05-06T05:51:22.484Z,100.00
2019-05-06T05:53:52.311Z,100.00
2019-05-06T05:56:23.796Z,100.00
2019-05-06T05:58:53.503Z,100.00
2019-05-06T06:01:23.395Z,100.00
2019-05-06T06:03:52.832Z,100.00
2019-05-06T06:06:22.315Z,100.00
2019-05-06T06:08:52.357Z,100.00
2019-05-06T06:11:26.443Z,100.00
2019-05-06T06:13:56.633Z,100.00
2019-05-06T06:16:29.391Z,100.00
2019-05-06T06:18:59.330Z,100.00
2019-05-06T06:21:35.082Z,100.00
2019-05-06T06:24:07.948Z,100.00
2019-05-06T06:26:36.277Z,100.00
2019-05-06T06:29:04.841Z,100.00
2019-05-06T06:31:34.844Z,100.00
2019-05-06T06:34:07.211Z,100.00
2019-05-06T06:36:37.141Z,100.00
2019-05-06T06:39:12.500Z,100.00
2019-05-06T06:41:42.378Z,100.00
2019-05-06T06:44:13.242Z,100.00
2019-05-06T06:46:42.908Z,100.00
2019-05-06T06:49:12.700Z,100.00
2019-05-06T06:51:42.509Z,100.00
2019-05-06T06:54:12.293Z,100.00
2019-05-06T06:57:03.164Z,100.00
2019-05-06T06:59:25.851Z,100.00
2019-05-06T07:02:08.048Z,100.00
2019-05-06T07:04:42.986Z,100.00
2019-05-06T07:07:12.926Z,100.00
2019-05-06T07:09:42.030Z,100.00
2019-05-06T07:12:13.026Z,100.00
2019-05-06T07:14:42.294Z,100.00
2019-05-06T07:17:13.197Z,100.00
2019-05-06T07:19:45.737Z,100.00
2019-05-06T07:22:14.027Z,100.00
2019-05-06T07:24:43.098Z,100.00
2019-05-06T07:27:15.952Z,100.00
2019-05-06T07:29:48.434Z,100.00
2019-05-06T07:32:14.362Z,100.00
2019-05-06T07:34:42.766Z,100.00
2019-05-06T07:37:12.495Z,100.00
2019-05-06T07:39:43.040Z,100.00
2019-05-06T07:42:18.484Z,100.00
2019-05-06T07:45:06.611Z,100.00
2019-05-06T07:47:35.470Z,100.00
2019-05-06T07:50:06.330Z,100.00
2019-05-06T07:52:34.799Z,100.00
2019-05-06T07:55:03.155Z,100.00
2019-05-06T07:57:33.054Z,100.00
2019-05-06T08:00:03.432Z,100.00
2019-05-06T08:02:32.171Z,100.00
2019-05-06T08:05:02.601Z,100.00
2019-05-06T08:07:33.131Z,100.00
2019-05-06T08:10:02.161Z,100.00
2019-05-06T08:12:32.662Z,100.00
2019-05-06T08:15:04.484Z,100.00
2019-05-06T08:17:33.178Z,100.00
2019-05-06T08:20:02.693Z,100.00
2019-05-06T08:22:33.358Z,100.00
2019-05-06T08:25:03.431Z,100.00
2019-05-06T08:27:32.982Z,100.00
2019-05-06T08:30:02.385Z,100.00
2019-05-06T08:32:32.189Z,100.00
2019-05-06T08:35:03.363Z,100.00
2019-05-06T08:37:35.722Z,100.00
2019-05-06T08:40:05.258Z,100.00
2019-05-06T08:42:33.647Z,100.00
2019-05-06T08:45:02.274Z,100.00
2019-05-06T08:47:32.859Z,100.00
2019-05-06T08:50:02.648Z,100.00
2019-05-06T08:52:49.633Z,100.00
2019-05-06T08:55:36.107Z,100.00
2019-05-06T08:58:04.697Z,100.00
2019-05-06T09:00:35.083Z,100.00
2019-05-06T09:03:04.270Z,100.00
2019-05-06T09:05:33.271Z,100.00
2019-05-06T09:08:03.667Z,97.50
2019-05-06T09:10:32.516Z,94.29
2019-05-06T09:13:02.011Z,96.38
2019-05-06T09:15:32.804Z,97.99
2019-05-06T09:18:02.960Z,94.42
2019-05-06T09:20:32.620Z,95.18
2019-05-06T09:23:04.537Z,94.42
2019-05-06T09:25:32.301Z,91.43
2019-05-06T09:28:05.234Z,91.43
2019-05-06T09:30:43.270Z,91.81
2019-05-06T09:33:12.958Z,93.25
2019-05-06T09:35:42.231Z,91.67
2019-05-06T09:38:12.722Z,89.58
2019-05-06T09:40:43.103Z,91.68
2019-05-06T09:43:13.210Z,86.98
2019-05-06T09:45:42.543Z,86.25
2019-05-06T09:48:22.432Z,87.50
2019-05-06T09:50:53.540Z,82.83
2019-05-06T09:53:34.659Z,81.98
2019-05-06T09:56:04.646Z,79.78
2019-05-06T09:58:35.418Z,78.53
2019-05-06T10:01:04.124Z,75.07
2019-05-06T10:03:32.438Z,76.92
2019-05-06T10:06:02.678Z,72.39
2019-05-06T10:08:32.300Z,71.02
2019-05-06T10:11:02.942Z,70.77
2019-05-06T10:13:32.727Z,77.45
2019-05-06T10:16:03.040Z,67.59
2019-05-06T10:18:31.214Z,67.59
2019-05-06T10:20:59.537Z,68.06
2019-05-06T10:23:27.827Z,69.84
2019-05-06T10:25:56.188Z,70.82
2019-05-06T10:28:38.295Z,73.19
2019-05-06T10:31:08.328Z,72.06
2019-05-06T10:33:38.267Z,72.28
2019-05-06T10:36:06.645Z,73.46
2019-05-06T10:38:52.984Z,69.94
2019-05-06T10:41:30.327Z,74.24
2019-05-06T10:44:13.507Z,67.05
2019-05-06T10:46:43.080Z,64.22
2019-05-06T10:49:13.181Z,61.85
2019-05-06T10:51:46.426Z,63.64
2019-05-06T10:54:14.692Z,63.32
2019-05-06T10:56:52.837Z,63.00
2019-05-06T10:59:16.343Z,64.43
2019-05-06T11:01:46.343Z,62.18
2019-05-06T11:04:14.662Z,60.63
2019-05-06T11:06:43.170Z,62.19
2019-05-06T11:09:13.505Z,61.06
2019-05-06T11:11:42.761Z,62.88
2019-05-06T11:14:12.801Z,58.53
2019-05-06T11:16:41.688Z,59.46
2019-05-06T11:19:10.368Z,57.75
2019-05-06T11:21:38.664Z,53.88
2019-05-06T11:24:07.072Z,53.27
2019-05-06T11:26:35.379Z,53.31
2019-05-06T11:29:05.494Z,53.54
2019-05-06T11:31:44.456Z,58.52
2019-05-06T11:34:26.260Z,51.25
2019-05-06T11:36:56.185Z,51.05
2019-05-06T11:39:24.861Z,50.48
2019-05-06T11:42:14.470Z,50.42
2019-05-06T11:44:23.829Z,53.16
2019-05-06T11:46:53.084Z,53.77
2019-05-06T11:49:23.323Z,58.75
2019-05-06T11:51:51.426Z,56.30
2019-05-06T11:54:23.546Z,58.43
2019-05-06T11:56:52.683Z,55.20
2019-05-06T11:59:22.652Z,57.72
2019-05-06T12:01:53.490Z,52.84
2019-05-06T12:04:23.028Z,51.99
2019-05-06T12:06:52.618Z,51.74
2019-05-06T12:09:22.285Z,52.40
2019-05-06T12:11:52.879Z,51.83
2019-05-06T12:14:22.645Z,52.28
2019-05-06T12:16:54.820Z,53.50
2019-05-06T12:19:22.536Z,53.13
2019-05-06T12:21:51.443Z,52.33
2019-05-06T12:24:19.767Z,51.53
2019-05-06T12:26:48.058Z,51.71
2019-05-06T12:29:16.349Z,54.37
2019-05-06T12:31:46.307Z,52.88
2019-05-06T12:34:14.844Z,51.88
2019-05-06T12:36:43.366Z,52.37
2019-05-06T12:39:18.517Z,51.71
2019-05-06T12:42:03.690Z,51.16
2019-05-06T12:44:33.773Z,53.62
2019-05-06T12:47:09.643Z,56.83
2019-05-06T12:49:38.234Z,58.54
2019-05-06T12:52:06.617Z,57.93
2019-05-06T12:54:35.199Z,58.47
2019-05-06T12:57:03.659Z,56.63
2019-05-06T12:59:32.375Z,53.75
2019-05-06T13:02:02.802Z,51.00
2019-05-06T13:04:46.371Z,51.19
2019-05-06T13:07:02.903Z,50.36
2019-05-06T13:09:32.951Z,53.69
2019-05-06T13:12:03.465Z,50.54
2019-05-06T13:14:32.947Z,50.37
2019-05-06T13:17:02.615Z,50.37
2019-05-06T13:19:32.239Z,53.10
2019-05-06T13:22:03.625Z,47.50
2019-05-06T13:24:32.710Z,49.89
2019-05-06T13:27:02.515Z,55.83
2019-05-06T13:29:35.389Z,54.81
2019-05-06T13:32:03.129Z,53.99
2019-05-06T13:34:33.329Z,49.08
2019-05-06T13:37:01.714Z,50.63
2019-05-06T13:39:32.570Z,52.61
2019-05-06T13:42:00.171Z,50.52
2019-05-06T13:44:28.467Z,52.13
2019-05-06T13:46:56.865Z,53.82
2019-05-06T13:49:26.860Z,55.68
2019-05-06T13:51:56.852Z,54.99
2019-05-06T13:54:25.194Z,53.17
2019-05-06T13:56:53.492Z,53.84
2019-05-06T13:59:21.825Z,55.00
2019-05-06T14:02:06.140Z,54.91
2019-05-06T14:04:32.686Z,53.87
2019-05-06T14:07:03.412Z,52.30
2019-05-06T14:09:35.263Z,51.35
2019-05-06T14:12:02.601Z,52.39
2019-05-06T14:14:32.202Z,50.64
2019-05-06T14:17:00.987Z,48.75
2019-05-06T14:19:29.311Z,47.38
2019-05-06T14:21:57.603Z,47.92
2019-05-06T14:24:27.258Z,47.20
2019-05-06T14:27:03.293Z,45.34
2019-05-06T14:29:35.965Z,45.74
2019-05-06T14:32:04.371Z,47.29
2019-05-06T14:34:32.723Z,50.03
2019-05-06T14:37:00.992Z,48.04
2019-05-06T14:39:48.550Z,48.62
2019-05-06T14:42:03.918Z,51.60
2019-05-06T14:44:32.718Z,53.09
2019-05-06T14:47:05.516Z,65.25
2019-05-06T14:49:33.809Z,78.00
2019-05-06T14:52:02.862Z,80.57
2019-05-06T14:54:33.066Z,80.91
2019-05-06T14:57:14.355Z,74.25
2019-05-06T14:59:42.644Z,74.52
2019-05-06T15:02:13.078Z,79.00
2019-05-06T15:04:43.512Z,71.32
2019-05-06T15:07:12.756Z,69.57
2019-05-06T15:09:55.670Z,67.89
2019-05-06T15:12:12.960Z,68.30
2019-05-06T15:14:42.590Z,65.24
2019-05-06T15:17:11.109Z,61.45
2019-05-06T15:19:39.758Z,65.33
2019-05-06T15:22:08.060Z,59.78
2019-05-06T15:24:36.414Z,59.33
2019-05-06T15:27:04.802Z,58.76
2019-05-06T15:29:33.122Z,56.82
2019-05-06T15:32:03.059Z,55.59
2019-05-06T15:34:42.338Z,56.30
2019-05-06T15:37:15.323Z,56.81
2019-05-06T15:39:43.948Z,56.06
2019-05-06T15:42:12.957Z,56.22
2019-05-06T15:44:42.451Z,55.28
2019-05-06T15:47:13.155Z,55.56
2019-05-06T15:49:41.917Z,52.42
2019-05-06T15:52:12.515Z,52.31
2019-05-06T15:54:42.895Z,53.06
2019-05-06T15:57:10.809Z,53.62
2019-05-06T15:59:41.371Z,51.80
2019-05-06T16:02:09.292Z,49.41
2019-05-06T16:04:37.619Z,49.17
2019-05-06T16:07:06.350Z,47.60
2019-05-06T16:09:34.739Z,46.65
2019-05-06T16:12:03.267Z,46.89
2019-05-06T16:14:34.123Z,48.67
2019-05-06T16:17:01.840Z,49.01
2019-05-06T16:19:30.124Z,46.51
2019-05-06T16:21:58.487Z,46.37
2019-05-06T16:24:28.435Z,46.28
2019-05-06T16:26:56.760Z,45.68
2019-05-06T16:29:36.819Z,47.27
2019-05-06T16:32:07.839Z,45.99
2019-05-06T16:34:36.686Z,45.01
2019-05-06T16:37:05.848Z,45.67
2019-05-06T16:39:34.655Z,45.55
2019-05-06T16:42:03.752Z,47.75
2019-05-06T16:44:32.542Z,49.64
2019-05-06T16:47:02.863Z,49.94
2019-05-06T16:49:33.187Z,51.56
2019-05-06T16:52:02.495Z,51.41
2019-05-06T16:54:34.523Z,49.53
2019-05-06T16:57:13.613Z,52.11
2019-05-06T16:59:42.481Z,54.35
2019-05-06T17:02:13.953Z,55.26
2019-05-06T17:04:43.972Z,51.56
2019-05-06T17:07:12.408Z,53.95
2019-05-06T17:09:42.819Z,52.71
2019-05-06T17:12:12.669Z,52.70
2019-05-06T17:14:42.784Z,57.81
2019-05-06T17:17:10.898Z,57.89
2019-05-06T17:19:39.194Z,60.20
2019-05-06T17:22:07.512Z,61.38
2019-05-06T17:24:35.804Z,59.44
2019-05-06T17:27:04.259Z,61.34
2019-05-06T17:29:50.634Z,63.08
2019-05-06T17:32:22.231Z,64.97
2019-05-06T17:34:52.769Z,66.31
2019-05-06T17:37:39.537Z,70.34
2019-05-06T17:40:14.132Z,69.11
2019-05-06T17:42:42.388Z,70.63
2019-05-06T17:45:29.277Z,72.97
2019-05-06T17:48:08.008Z,70.65
2019-05-06T17:50:36.368Z,72.56
2019-05-06T17:53:04.771Z,70.86
2019-05-06T17:55:33.422Z,71.80
2019-05-06T17:58:02.520Z,70.03
2019-05-06T18:00:32.379Z,72.37
2019-05-06T18:03:02.532Z,72.71
2019-05-06T18:05:32.492Z,72.25
2019-05-06T18:08:02.891Z,73.03
2019-05-06T18:10:33.511Z,73.35
2019-05-06T18:13:03.162Z,74.18
2019-05-06T18:15:32.179Z,74.18
2019-05-06T18:18:02.180Z,74.63
2019-05-06T18:20:33.355Z,73.00
2019-05-06T18:23:02.129Z,73.85
2019-05-06T18:25:32.875Z,73.08
2019-05-06T18:28:01.225Z,74.43
2019-05-06T18:30:33.316Z,71.80
2019-05-06T18:32:59.628Z,72.04
2019-05-06T18:35:27.936Z,71.02
2019-05-06T18:37:56.241Z,73.64
2019-05-06T18:40:24.824Z,70.52
2019-05-06T18:42:53.117Z,70.52
2019-05-06T18:45:22.030Z,73.60
2019-05-06T18:47:53.034Z,73.60
2019-05-06T18:50:22.087Z,71.01
2019-05-06T18:52:52.839Z,71.01
2019-05-06T18:55:22.351Z,71.79
2019-05-06T18:57:52.826Z,71.10
2019-05-06T19:00:22.596Z,72.41
2019-05-06T19:02:52.218Z,74.10
2019-05-06T19:05:26.762Z,75.50
2019-05-06T19:07:53.357Z,75.50
2019-05-06T19:10:23.462Z,75.94
2019-05-06T19:12:52.790Z,74.33
2019-05-06T19:15:22.095Z,76.74
2019-05-06T19:17:52.657Z,76.91
2019-05-06T19:20:21.923Z,77.35
2019-05-06T19:22:53.382Z,78.61
2019-05-06T19:25:22.686Z,79.56
2019-05-06T19:27:53.019Z,80.88
2019-05-06T19:30:22.564Z,80.47
2019-05-06T19:32:53.065Z,82.56
2019-05-06T19:35:21.557Z,82.56
2019-05-06T19:37:49.906Z,83.97
2019-05-06T19:40:18.286Z,83.24
2019-05-06T19:42:49.961Z,84.53
2019-05-06T19:45:16.756Z,85.80
2019-05-06T19:47:45.039Z,86.42
2019-05-06T19:50:13.602Z,87.10
2019-05-06T19:52:42.273Z,88.09
2019-05-06T19:55:12.325Z,89.84
2019-05-06T19:57:42.963Z,89.56
2019-05-06T20:00:11.465Z,91.33
2019-05-06T20:02:39.868Z,91.97
2019-05-06T20:05:12.527Z,95.52
2019-05-06T20:07:45.140Z,95.74
2019-05-06T20:10:22.998Z,95.74
2019-05-06T20:13:02.714Z,95.65
2019-05-06T20:15:33.925Z,95.85
2019-05-06T20:18:03.235Z,95.35
2019-05-06T20:20:34.322Z,95.35
2019-05-06T20:23:02.644Z,95.07
2019-05-06T20:25:31.333Z,96.49
2019-05-06T20:27:59.642Z,96.54
2019-05-06T20:30:28.014Z,97.87
2019-05-06T20:32:56.304Z,97.93
2019-05-06T20:35:24.702Z,97.74
2019-05-06T20:37:53.520Z,97.74
2019-05-06T20:40:22.930Z,97.94
2019-05-06T20:42:51.524Z,97.94
2019-05-06T20:45:22.171Z,96.22
2019-05-06T20:47:52.328Z,96.22
2019-05-06T20:50:22.536Z,98.20
2019-05-06T20:52:52.044Z,96.46
2019-05-06T20:55:22.706Z,96.46
2019-05-06T20:57:52.730Z,98.24
2019-05-06T21:00:22.376Z,98.24
2019-05-06T21:02:53.370Z,97.65
2019-05-06T21:05:22.783Z,97.92
2019-05-06T21:07:52.605Z,97.92
2019-05-06T21:10:22.158Z,99.29
2019-05-06T21:12:53.002Z,99.11
2019-05-06T21:15:22.858Z,99.88
2019-05-06T21:17:51.130Z,99.42
2019-05-06T21:20:19.774Z,100.00
2019-05-06T21:22:49.268Z,100.00
2019-05-06T21:25:18.033Z,100.00
2019-05-06T21:27:46.502Z,100.00
2019-05-06T21:30:15.244Z,100.00
2019-05-06T21:32:43.567Z,100.00
2019-05-06T21:35:12.640Z,100.00
2019-05-06T21:37:42.281Z,100.00
2019-05-06T21:40:12.415Z,100.00
2019-05-06T21:42:43.185Z,100.00
2019-05-06T21:45:12.503Z,100.00
2019-05-06T21:47:44.230Z,100.00
2019-05-06T21:50:12.110Z,100.00
2019-05-06T21:52:42.857Z,100.00
2019-05-06T21:55:13.175Z,100.00
2019-05-06T21:57:42.278Z,100.00
2019-05-06T22:00:16.797Z,100.00
2019-05-06T22:02:43.500Z,100.00
2019-05-06T22:05:13.321Z,100.00
2019-05-06T22:07:43.458Z,100.00
2019-05-06T22:10:12.321Z,100.00
2019-05-06T22:12:43.152Z,100.00
2019-05-06T22:15:11.903Z,100.00
2019-05-06T22:17:42.766Z,100.00
2019-05-06T22:20:11.086Z,100.00
2019-05-06T22:22:43.453Z,100.00
2019-05-06T22:25:12.519Z,100.00
2019-05-06T22:27:42.394Z,100.00
2019-05-06T22:30:11.816Z,100.00
2019-05-06T22:32:45.789Z,100.00
2019-05-06T22:35:15.947Z,100.00
2019-05-06T22:37:45.082Z,100.00
2019-05-06T22:40:14.345Z,100.00
2019-05-06T22:42:43.225Z,100.00
2019-05-06T22:45:13.187Z,100.00
2019-05-06T22:47:42.115Z,100.00
2019-05-06T22:50:13.156Z,100.00
2019-05-06T22:52:42.066Z,100.00
2019-05-06T22:55:12.988Z,100.00
2019-05-06T22:57:42.250Z,100.00
2019-05-06T23:00:15.154Z,100.00
2019-05-06T23:02:54.125Z,100.00
2019-05-06T23:05:23.132Z,100.00
2019-05-06T23:07:53.264Z,100.00
2019-05-06T23:10:24.497Z,100.00
2019-05-06T23:12:52.296Z,100.00
2019-05-06T23:15:20.809Z,100.00
2019-05-06T23:17:49.134Z,100.00
2019-05-06T23:20:17.623Z,100.00
2019-05-06T23:22:45.921Z,100.00
2019-05-06T23:25:14.318Z,100.00
2019-05-06T23:27:44.111Z,100.00
2019-05-06T23:30:12.886Z,100.00
2019-05-06T23:32:42.271Z,100.00
2019-05-06T23:35:12.857Z,100.00
2019-05-06T23:38:17.319Z,100.00
2019-05-06T23:41:21.993Z,100.00
2019-05-06T23:44:27.084Z,100.00
2019-05-06T23:47:32.214Z,100.00
2019-05-06T23:50:37.137Z,100.00
2019-05-06T23:53:41.650Z,100.00
2019-05-06T23:56:46.383Z,100.00
2019-05-06T23:59:17.220Z,100.00
